createdAt,value
2018-08-13T00:01:06.751Z,24.68
2018-08-13T00:03:35.813Z,24.68
2018-08-13T00:06:04.608Z,24.57
2018-08-13T00:08:33.789Z,24.48
2018-08-13T00:11:02.867Z,24.76
2018-08-13T00:13:31.630Z,25.10
2018-08-13T00:16:00.352Z,24.94
2018-08-13T00:18:29.128Z,24.71
2018-08-13T00:20:57.981Z,24.82
2018-08-13T00:23:27.272Z,24.45
2018-08-13T00:25:55.922Z,24.52
2018-08-13T00:28:24.655Z,24.13
2018-08-13T00:30:53.328Z,24.23
2018-08-13T00:33:21.965Z,24.30
2018-08-13T00:35:51.567Z,24.22
2018-08-13T00:38:20.278Z,24.21
2018-08-13T00:40:48.978Z,24.15
2018-08-13T00:43:17.652Z,24.02
2018-08-13T00:45:46.410Z,23.97
2018-08-13T00:48:15.022Z,23.98
2018-08-13T00:50:43.830Z,23.94
2018-08-13T00:53:12.404Z,23.99
2018-08-13T00:55:41.132Z,24.03
2018-08-13T00:58:09.864Z,23.82
2018-08-13T01:00:38.738Z,23.87
2018-08-13T01:03:08.270Z,24.08
2018-08-13T01:05:36.995Z,24.08
2018-08-13T01:08:05.914Z,23.94
2018-08-13T01:10:34.549Z,23.87
2018-08-13T01:13:03.341Z,23.88
2018-08-13T01:15:32.053Z,23.82
2018-08-13T01:18:00.708Z,23.81
2018-08-13T01:20:29.440Z,23.98
2018-08-13T01:22:58.120Z,23.78
2018-08-13T01:25:26.924Z,23.67
2018-08-13T01:27:55.726Z,23.56
2018-08-13T01:30:24.425Z,23.59
2018-08-13T01:32:53.278Z,23.43
2018-08-13T01:35:21.883Z,23.40
2018-08-13T01:37:50.540Z,23.10
2018-08-13T01:40:19.207Z,23.32
2018-08-13T01:42:48.049Z,23.27
2018-08-13T01:45:16.819Z,23.32
2018-08-13T01:47:46.104Z,23.29
2018-08-13T01:50:15.118Z,23.30
2018-08-13T01:52:43.984Z,23.22
2018-08-13T01:55:12.661Z,23.37
2018-08-13T01:57:41.306Z,23.17
2018-08-13T02:00:16.360Z,23.30
2018-08-13T02:02:45.067Z,23.42
2018-08-13T02:05:13.954Z,23.26
2018-08-13T02:07:43.013Z,23.35
2018-08-13T02:10:12.842Z,23.47
2018-08-13T02:12:41.793Z,23.36
2018-08-13T02:15:10.755Z,23.57
2018-08-13T02:17:39.428Z,23.60
2018-08-13T02:20:09.296Z,23.57
2018-08-13T02:22:38.375Z,23.37
2018-08-13T02:25:07.604Z,23.38
2018-08-13T02:27:36.517Z,23.41
2018-08-13T02:30:08.040Z,23.47
2018-08-13T02:32:37.714Z,23.49
2018-08-13T02:35:07.553Z,23.47
2018-08-13T02:37:36.649Z,23.47
2018-08-13T02:40:07.006Z,23.42
2018-08-13T02:42:35.925Z,23.47
2018-08-13T02:45:06.009Z,23.40
2018-08-13T02:47:34.901Z,23.22
2018-08-13T02:50:03.993Z,23.14
2018-08-13T02:52:32.775Z,23.14
2018-08-13T02:55:02.214Z,23.53
2018-08-13T02:57:31.015Z,23.66
2018-08-13T03:00:00.542Z,23.53
2018-08-13T03:02:29.726Z,23.25
2018-08-13T03:04:58.721Z,23.20
2018-08-13T03:07:28.057Z,23.37
2018-08-13T03:09:56.839Z,23.38
2018-08-13T03:12:26.284Z,23.28
2018-08-13T03:14:55.413Z,22.85
2018-08-13T03:17:31.998Z,23.06
2018-08-13T03:20:01.669Z,23.07
2018-08-13T03:22:31.852Z,23.36
2018-08-13T03:25:01.777Z,23.39
2018-08-13T03:27:30.689Z,23.41
2018-08-13T03:30:00.636Z,23.21
2018-08-13T03:32:29.718Z,22.86
2018-08-13T03:34:58.717Z,23.12
2018-08-13T03:37:27.702Z,22.98
2018-08-13T03:39:57.309Z,23.11
2018-08-13T03:42:27.200Z,23.74
2018-08-13T03:44:56.413Z,23.71
2018-08-13T03:47:25.496Z,23.52
2018-08-13T03:49:55.101Z,23.65
2018-08-13T03:52:23.936Z,23.57
2018-08-13T03:54:53.051Z,23.71
2018-08-13T03:57:22.178Z,23.74
2018-08-13T03:59:51.293Z,23.74
2018-08-13T04:02:20.213Z,23.64
2018-08-13T04:04:49.200Z,23.55
2018-08-13T04:07:17.992Z,23.52
2018-08-13T04:09:47.223Z,23.71
2018-08-13T04:12:16.337Z,23.97
2018-08-13T04:14:45.964Z,24.29
2018-08-13T04:17:14.804Z,24.26
2018-08-13T04:19:43.931Z,24.69
2018-08-13T04:22:13.105Z,24.83
2018-08-13T04:24:41.944Z,24.91
2018-08-13T04:27:10.869Z,24.86
2018-08-13T04:29:39.731Z,25.23
2018-08-13T04:32:09.317Z,25.07
2018-08-13T04:34:38.222Z,24.78
2018-08-13T04:37:07.554Z,24.69
2018-08-13T04:39:36.332Z,24.71
2018-08-13T04:42:05.215Z,24.65
2018-08-13T04:44:33.999Z,24.43
2018-08-13T04:47:03.018Z,24.45
2018-08-13T04:49:31.797Z,23.98
2018-08-13T04:52:00.531Z,23.22
2018-08-13T04:54:29.434Z,23.01
2018-08-13T04:56:58.172Z,23.00
2018-08-13T04:59:27.011Z,22.83
2018-08-13T05:01:55.698Z,22.93
2018-08-13T05:04:24.376Z,22.87
2018-08-13T05:06:53.028Z,22.90
2018-08-13T05:09:21.780Z,22.95
2018-08-13T05:11:50.562Z,22.78
2018-08-13T05:14:19.339Z,23.03
2018-08-13T05:16:48.090Z,23.26
2018-08-13T05:19:16.785Z,23.48
2018-08-13T05:21:45.450Z,23.28
2018-08-13T05:24:14.168Z,23.90
2018-08-13T05:26:42.982Z,24.09
2018-08-13T05:29:11.885Z,24.47
2018-08-13T05:31:40.578Z,24.80
2018-08-13T05:34:09.359Z,25.07
2018-08-13T05:36:38.049Z,25.27
2018-08-13T05:39:10.112Z,25.79
2018-08-13T05:41:38.973Z,26.19
2018-08-13T05:44:07.823Z,26.86
2018-08-13T05:46:36.762Z,27.02
2018-08-13T05:49:05.503Z,27.00
2018-08-13T05:51:34.222Z,26.95
2018-08-13T05:54:02.975Z,27.13
2018-08-13T05:56:31.758Z,27.48
2018-08-13T05:59:00.634Z,27.46
2018-08-13T06:01:29.559Z,27.98
2018-08-13T06:03:58.403Z,28.54
2018-08-13T06:06:27.241Z,28.83
2018-08-13T06:08:55.963Z,28.82
2018-08-13T06:11:24.781Z,28.53
2018-08-13T06:13:53.470Z,28.49
2018-08-13T06:16:22.132Z,28.83
2018-08-13T06:18:50.852Z,28.38
2018-08-13T06:21:19.686Z,28.74
2018-08-13T06:23:48.790Z,29.42
2018-08-13T06:26:19.828Z,29.80
2018-08-13T06:28:49.841Z,29.67
2018-08-13T06:31:19.240Z,29.69
2018-08-13T06:33:48.914Z,30.32
2018-08-13T06:36:17.795Z,30.34
2018-08-13T06:38:46.945Z,29.91
2018-08-13T06:41:17.729Z,29.98
2018-08-13T06:43:46.935Z,30.71
2018-08-13T06:46:16.089Z,31.13
2018-08-13T06:48:45.113Z,30.88
2018-08-13T06:51:13.963Z,30.62
2018-08-13T06:53:43.011Z,31.05
2018-08-13T06:56:12.165Z,30.98
2018-08-13T06:58:41.386Z,31.36
2018-08-13T07:01:10.438Z,31.26
2018-08-13T07:03:39.468Z,31.77
2018-08-13T07:06:08.544Z,31.87
2018-08-13T07:08:37.518Z,31.89
2018-08-13T07:11:06.718Z,31.62
2018-08-13T07:13:36.496Z,31.71
2018-08-13T07:16:05.374Z,31.08
2018-08-13T07:18:34.293Z,30.50
2018-08-13T07:21:03.713Z,29.60
2018-08-13T07:23:32.524Z,29.09
2018-08-13T07:26:01.612Z,29.73
2018-08-13T07:28:30.543Z,30.24
2018-08-13T07:30:59.547Z,29.87
2018-08-13T07:33:28.659Z,29.58
2018-08-13T07:35:58.271Z,29.73
2018-08-13T07:38:27.112Z,30.50
2018-08-13T07:40:56.247Z,31.41
2018-08-13T07:43:26.640Z,32.04
2018-08-13T07:45:55.838Z,31.82
2018-08-13T07:48:24.849Z,31.47
2018-08-13T07:50:54.820Z,31.92
2018-08-13T07:53:24.940Z,32.15
2018-08-13T07:55:53.973Z,32.08
2018-08-13T07:58:23.435Z,32.33
2018-08-13T08:00:52.326Z,32.18
2018-08-13T08:03:21.160Z,32.37
2018-08-13T08:05:49.842Z,32.16
2018-08-13T08:08:18.589Z,31.98
2018-08-13T08:10:47.325Z,32.29
2018-08-13T08:13:16.199Z,32.33
2018-08-13T08:15:45.058Z,32.04
2018-08-13T08:18:13.797Z,31.30
2018-08-13T08:20:44.086Z,30.86
2018-08-13T08:23:12.987Z,30.05
2018-08-13T08:25:42.012Z,28.64
2018-08-13T08:28:10.783Z,27.90
2018-08-13T08:30:39.699Z,27.22
2018-08-13T08:33:08.599Z,26.75
2018-08-13T08:35:37.622Z,26.63
2018-08-13T08:38:07.269Z,26.63
2018-08-13T08:40:36.467Z,26.09
2018-08-13T08:43:06.650Z,26.63
2018-08-13T08:45:35.612Z,27.88
2018-08-13T08:48:05.799Z,27.63
2018-08-13T08:50:35.007Z,27.59
2018-08-13T08:53:04.197Z,28.00
2018-08-13T08:55:33.468Z,27.13
2018-08-13T08:58:02.323Z,26.53
2018-08-13T09:00:31.592Z,26.71
2018-08-13T09:03:00.636Z,26.65
2018-08-13T09:05:29.874Z,27.64
2018-08-13T09:07:59.962Z,27.87
2018-08-13T09:10:30.809Z,27.89
2018-08-13T09:12:59.856Z,27.88
2018-08-13T09:15:28.829Z,27.65
2018-08-13T09:18:08.781Z,27.07
2018-08-13T09:20:49.357Z,27.72
2018-08-13T09:23:29.154Z,27.97
2018-08-13T09:26:09.062Z,28.33
2018-08-13T09:28:48.848Z,27.91
2018-08-13T09:31:29.776Z,27.36
2018-08-13T09:34:13.819Z,27.53
2018-08-13T09:36:42.755Z,27.27
2018-08-13T09:39:12.231Z,27.62
2018-08-13T09:41:41.217Z,26.95
2018-08-13T09:44:11.231Z,27.51
2018-08-13T09:46:40.024Z,28.44
2018-08-13T09:49:09.024Z,28.43
2018-08-13T09:51:38.062Z,28.43
2018-08-13T09:54:07.056Z,28.67
2018-08-13T09:56:35.887Z,28.57
2018-08-13T09:59:04.863Z,27.68
2018-08-13T10:01:34.138Z,28.85
2018-08-13T10:04:03.653Z,29.18
2018-08-13T10:06:32.466Z,29.93
2018-08-13T10:09:01.319Z,29.99
2018-08-13T10:11:30.254Z,30.26
2018-08-13T10:13:59.319Z,29.99
2018-08-13T10:16:28.744Z,30.54
2018-08-13T10:18:58.347Z,30.49
2018-08-13T10:21:27.320Z,30.27
2018-08-13T10:23:56.300Z,30.67
2018-08-13T10:26:25.612Z,30.75
2018-08-13T10:28:54.678Z,30.59
2018-08-13T10:31:23.879Z,30.97
2018-08-13T10:33:52.985Z,30.65
2018-08-13T10:36:21.893Z,30.57
2018-08-13T10:38:51.904Z,30.32
2018-08-13T10:41:22.128Z,30.66
2018-08-13T10:43:51.471Z,30.48
2018-08-13T10:46:20.207Z,30.32
2018-08-13T10:48:49.171Z,30.41
2018-08-13T10:51:18.176Z,30.76
2018-08-13T10:53:47.510Z,30.65
2018-08-13T10:56:16.285Z,30.51
2018-08-13T10:58:45.513Z,31.01
2018-08-13T11:01:14.727Z,31.17
2018-08-13T11:03:43.925Z,31.09
2018-08-13T11:06:13.077Z,31.43
2018-08-13T11:08:42.528Z,31.13
2018-08-13T11:11:11.388Z,31.00
2018-08-13T11:13:41.102Z,31.04
2018-08-13T11:16:09.933Z,30.72
2018-08-13T11:18:38.713Z,30.07
2018-08-13T11:21:07.606Z,30.93
2018-08-13T11:23:36.951Z,31.03
2018-08-13T11:26:06.203Z,30.13
2018-08-13T11:28:35.234Z,30.23
2018-08-13T11:31:04.871Z,30.39
2018-08-13T11:33:33.722Z,30.08
2018-08-13T11:36:02.697Z,30.40
2018-08-13T11:38:31.639Z,30.89
2018-08-13T11:41:00.629Z,30.21
2018-08-13T11:43:29.395Z,30.31
2018-08-13T11:45:58.549Z,30.62
2018-08-13T11:48:28.069Z,30.66
2018-08-13T11:50:58.496Z,30.68
2018-08-13T11:53:27.227Z,30.42
2018-08-13T11:55:56.021Z,30.77
2018-08-13T11:58:25.018Z,30.74
2018-08-13T12:00:53.849Z,30.64
2018-08-13T12:03:22.679Z,31.09
2018-08-13T12:05:51.436Z,31.14
2018-08-13T12:08:20.489Z,31.25
2018-08-13T12:10:50.040Z,31.45
2018-08-13T12:13:18.966Z,31.48
2018-08-13T12:15:47.835Z,30.90
2018-08-13T12:18:17.127Z,31.49
2018-08-13T12:20:45.925Z,31.26
2018-08-13T12:23:15.135Z,31.22
2018-08-13T12:25:44.103Z,31.30
2018-08-13T12:28:13.008Z,31.10
2018-08-13T12:30:42.001Z,31.29
2018-08-13T12:33:11.104Z,31.21
2018-08-13T12:35:41.187Z,31.54
2018-08-13T12:38:10.348Z,31.39
2018-08-13T12:40:39.215Z,31.31
2018-08-13T12:43:08.136Z,31.25
2018-08-13T12:45:37.558Z,31.34
2018-08-13T12:48:07.052Z,31.82
2018-08-13T12:50:36.717Z,31.76
2018-08-13T12:53:05.928Z,31.21
2018-08-13T12:55:35.084Z,31.78
2018-08-13T12:58:06.276Z,31.08
2018-08-13T13:00:35.277Z,30.97
2018-08-13T13:03:05.039Z,31.56
2018-08-13T13:05:34.162Z,31.55
2018-08-13T13:08:03.255Z,30.58
2018-08-13T13:10:32.329Z,30.51
2018-08-13T13:13:01.360Z,30.82
2018-08-13T13:15:30.297Z,30.14
2018-08-13T13:17:59.436Z,30.68
2018-08-13T13:20:28.222Z,30.97
2018-08-13T13:22:57.332Z,31.14
2018-08-13T13:25:27.684Z,30.89
2018-08-13T13:27:56.832Z,31.68
2018-08-13T13:30:26.014Z,31.98
2018-08-13T13:32:55.273Z,32.61
2018-08-13T13:35:24.760Z,32.87
2018-08-13T13:37:53.400Z,32.70
2018-08-13T13:40:22.435Z,34.58
2018-08-13T13:42:51.401Z,34.56
2018-08-13T13:45:20.288Z,33.31
2018-08-13T13:47:49.067Z,32.39
2018-08-13T13:56:16.528Z,32.36
2018-08-13T13:58:45.721Z,34.05
2018-08-13T14:01:15.043Z,35.49
2018-08-13T14:03:44.260Z,35.56
2018-08-13T14:06:13.667Z,36.66
2018-08-13T14:08:42.515Z,36.15
2018-08-13T14:11:11.365Z,36.25
2018-08-13T14:13:40.518Z,34.74
2018-08-13T14:16:10.515Z,33.59
2018-08-13T14:18:39.583Z,33.03
2018-08-13T14:21:08.676Z,33.44
2018-08-13T14:23:37.696Z,33.74
2018-08-13T14:26:06.912Z,33.42
2018-08-13T14:28:36.333Z,33.01
2018-08-13T14:31:05.476Z,32.41
2018-08-13T14:33:34.782Z,32.27
2018-08-13T14:36:04.804Z,31.33
2018-08-13T14:38:33.918Z,30.90
2018-08-13T14:41:02.986Z,30.81
2018-08-13T14:43:32.211Z,30.71
2018-08-13T14:46:01.575Z,30.68
2018-08-13T14:48:31.166Z,29.67
2018-08-13T14:51:00.973Z,29.11
2018-08-13T14:53:30.073Z,28.64
2018-08-13T14:55:58.995Z,28.59
2018-08-13T14:58:28.163Z,27.47
2018-08-13T15:00:57.027Z,26.58
2018-08-13T15:03:26.115Z,27.00
2018-08-13T15:05:55.221Z,27.31
2018-08-13T15:08:24.311Z,28.02
2018-08-13T15:10:54.536Z,28.40
2018-08-13T15:13:23.492Z,29.09
2018-08-13T15:15:52.526Z,29.05
2018-08-13T15:18:21.372Z,29.51
2018-08-13T15:20:50.315Z,32.42
2018-08-13T15:23:19.158Z,34.35
2018-08-13T15:25:48.083Z,35.72
2018-08-13T15:28:17.250Z,34.75
2018-08-13T15:30:46.864Z,35.39
2018-08-13T15:33:16.239Z,35.00
2018-08-13T15:35:45.374Z,34.82
2018-08-13T15:38:14.289Z,34.34
2018-08-13T15:40:44.800Z,34.58
2018-08-13T15:43:13.591Z,36.42
2018-08-13T15:45:42.460Z,38.12
2018-08-13T15:48:11.600Z,38.41
2018-08-13T15:50:40.681Z,38.93
2018-08-13T15:53:09.643Z,39.26
2018-08-13T15:55:38.798Z,39.05
2018-08-13T15:58:07.494Z,38.94
2018-08-13T16:00:36.193Z,39.18
2018-08-13T16:03:05.103Z,37.84
2018-08-13T16:05:33.812Z,36.02
2018-08-13T16:08:02.656Z,35.20
2018-08-13T16:10:31.343Z,34.17
2018-08-13T16:13:00.050Z,32.85
2018-08-13T16:15:30.888Z,32.00
2018-08-13T16:18:00.688Z,32.35
2018-08-13T16:20:29.379Z,31.99
2018-08-13T16:22:58.126Z,31.44
2018-08-13T16:25:26.882Z,31.76
2018-08-13T16:27:55.640Z,31.54
2018-08-13T16:30:26.044Z,30.93
2018-08-13T16:32:55.207Z,30.97
2018-08-13T16:35:24.783Z,31.22
2018-08-13T16:37:54.248Z,30.80
2018-08-13T16:40:23.504Z,30.46
2018-08-13T16:42:52.816Z,30.55
2018-08-13T16:45:22.954Z,30.13
2018-08-13T16:47:52.200Z,30.52
2018-08-13T16:50:27.541Z,30.63
2018-08-13T16:52:56.868Z,30.64
2018-08-13T16:55:26.626Z,30.46
2018-08-13T16:57:56.190Z,30.41
2018-08-13T17:00:30.393Z,30.16
2018-08-13T17:02:59.935Z,29.31
2018-08-13T17:05:30.203Z,29.17
2018-08-13T17:07:59.476Z,28.26
2018-08-13T17:10:29.321Z,28.52
2018-08-13T17:12:58.867Z,29.40
2018-08-13T17:15:32.724Z,29.18
2018-08-13T17:18:07.188Z,29.96
2018-08-13T17:20:38.421Z,29.73
2018-08-13T17:23:07.584Z,31.42
2018-08-13T17:25:36.602Z,31.84
2018-08-13T17:28:06.374Z,31.85
2018-08-13T17:30:35.670Z,32.46
2018-08-13T17:33:04.854Z,32.74
2018-08-13T17:35:35.746Z,32.58
2018-08-13T17:38:07.381Z,32.01
2018-08-13T17:40:36.136Z,31.95
2018-08-13T17:45:57.886Z,31.59
2018-08-13T17:48:28.830Z,31.45
2018-08-13T17:50:58.105Z,31.01
2018-08-13T17:53:26.834Z,31.03
2018-08-13T17:55:57.271Z,31.02
2018-08-13T17:58:26.791Z,30.72
2018-08-13T18:00:55.976Z,30.90
2018-08-13T18:03:25.038Z,30.79
2018-08-13T18:05:54.505Z,30.33
2018-08-13T18:08:23.720Z,30.48
2018-08-13T18:10:53.511Z,29.73
2018-08-13T18:13:22.732Z,29.73
2018-08-13T18:15:51.982Z,30.26
2018-08-13T18:18:21.407Z,30.46
2018-08-13T18:20:50.279Z,30.10
2018-08-13T18:23:19.185Z,29.71
2018-08-13T18:25:49.310Z,30.07
2018-08-13T18:28:18.389Z,29.93
2018-08-13T18:30:47.341Z,29.71
2018-08-13T18:33:16.417Z,29.91
2018-08-13T18:35:45.617Z,29.52
2018-08-13T18:38:14.493Z,29.18
2018-08-13T18:40:43.484Z,29.52
2018-08-13T18:43:12.503Z,29.96
2018-08-13T18:45:41.519Z,30.18
2018-08-13T18:48:10.599Z,29.92
2018-08-13T18:50:45.326Z,29.81
2018-08-13T18:53:17.246Z,29.79
2018-08-13T18:55:48.848Z,29.76
2018-08-13T19:01:09.632Z,29.31
2018-08-13T19:03:41.445Z,29.49
2018-08-13T19:06:12.583Z,29.79
2018-08-13T19:08:41.511Z,29.42
2018-08-13T19:11:10.590Z,28.95
2018-08-13T19:13:39.602Z,28.32
2018-08-13T19:16:08.595Z,28.44
2018-08-13T19:18:37.601Z,28.57
2018-08-13T19:21:06.974Z,28.52
2018-08-13T19:23:36.125Z,28.27
2018-08-13T19:26:05.669Z,28.15
2018-08-13T19:28:34.434Z,28.12
2018-08-13T19:31:03.579Z,27.81
2018-08-13T19:33:32.753Z,27.67
2018-08-13T19:36:02.284Z,27.58
2018-08-13T19:38:31.257Z,27.52
2018-08-13T19:41:01.072Z,27.45
2018-08-13T19:43:30.851Z,27.42
2018-08-13T19:46:00.282Z,27.39
2018-08-13T19:48:29.262Z,27.30
2018-08-13T19:50:59.344Z,27.22
2018-08-13T19:53:29.081Z,27.18
2018-08-13T19:55:58.681Z,27.32
2018-08-13T19:58:27.386Z,27.24
2018-08-13T20:00:57.341Z,27.32
2018-08-13T20:03:26.158Z,27.31
2018-08-13T20:05:55.141Z,27.17
2018-08-13T20:08:24.680Z,27.12
2018-08-13T20:10:53.729Z,26.98
2018-08-13T20:13:23.623Z,26.91
2018-08-13T20:15:54.136Z,26.94
2018-08-13T20:18:22.808Z,26.97
2018-08-13T20:20:52.094Z,26.89
2018-08-13T20:23:22.027Z,26.87
2018-08-13T20:25:52.663Z,26.69
2018-08-13T20:28:22.531Z,26.80
2018-08-13T20:30:52.171Z,26.79
2018-08-13T20:33:21.573Z,26.67
2018-08-13T20:35:52.011Z,26.74
2018-08-13T20:38:21.087Z,26.56
2018-08-13T20:40:50.719Z,26.13
2018-08-13T20:43:20.067Z,26.50
2018-08-13T20:45:49.365Z,26.46
2018-08-13T20:48:18.692Z,26.22
2018-08-13T20:50:48.151Z,26.07
2018-08-13T20:53:17.230Z,26.32
2018-08-13T20:55:46.925Z,26.09
2018-08-13T20:58:15.837Z,26.39
2018-08-13T21:00:44.738Z,26.34
2018-08-13T21:03:13.561Z,26.38
2018-08-13T21:05:42.516Z,26.31
2018-08-13T21:08:11.626Z,26.73
2018-08-13T21:10:41.372Z,26.60
2018-08-13T21:13:11.419Z,26.78
2018-08-13T21:15:40.738Z,26.69
2018-08-13T21:18:10.223Z,26.69
2018-08-13T21:20:39.149Z,26.11
2018-08-13T21:23:08.163Z,25.85
2018-08-13T21:25:37.477Z,26.02
2018-08-13T21:28:07.110Z,25.45
2018-08-13T21:30:36.199Z,26.18
2018-08-13T21:33:04.956Z,25.90
2018-08-13T21:35:33.836Z,26.17
2018-08-13T21:38:02.743Z,26.21
2018-08-13T21:40:31.643Z,25.53
2018-08-13T21:43:02.089Z,25.83
2018-08-13T21:45:32.587Z,26.05
2018-08-13T21:48:01.628Z,25.70
2018-08-13T21:50:30.549Z,25.73
2018-08-13T21:52:59.598Z,25.95
2018-08-13T21:55:30.478Z,26.00
2018-08-13T21:57:59.558Z,25.96
2018-08-13T22:00:31.437Z,26.22
2018-08-13T22:03:03.307Z,26.37
2018-08-13T22:05:32.449Z,26.43
2018-08-13T22:08:02.677Z,26.63
2018-08-13T22:10:32.684Z,26.49
2018-08-13T22:13:01.565Z,26.36
2018-08-13T22:15:31.976Z,25.95
2018-08-13T22:18:02.465Z,25.91
2018-08-13T22:20:32.353Z,25.91
2018-08-13T22:23:02.053Z,25.99
2018-08-13T22:25:32.413Z,26.30
2018-08-13T22:28:01.581Z,26.06
2018-08-13T22:30:31.960Z,25.89
2018-08-13T22:33:00.869Z,26.09
2018-08-13T22:35:30.798Z,25.96
2018-08-13T22:37:59.875Z,25.94
2018-08-13T22:40:28.675Z,25.71
2018-08-13T22:42:57.530Z,25.71
2018-08-13T22:45:27.021Z,25.06
2018-08-13T22:47:55.927Z,25.32
2018-08-13T22:50:25.472Z,24.78
2018-08-13T22:52:54.364Z,24.68
2018-08-13T22:55:23.860Z,24.72
2018-08-13T22:57:52.788Z,25.05
2018-08-13T23:00:22.039Z,24.71
2018-08-13T23:02:51.922Z,25.07
2018-08-13T23:05:24.328Z,25.33
2018-08-13T23:10:44.224Z,25.68
2018-08-13T23:16:04.169Z,25.57
2018-08-13T23:18:33.503Z,25.40
2018-08-13T23:21:03.814Z,25.41
2018-08-13T23:23:35.140Z,25.33
2018-08-13T23:26:05.098Z,25.42
2018-08-13T23:28:34.928Z,25.35
2018-08-13T23:31:04.637Z,25.33
2018-08-13T23:33:34.683Z,25.13
2018-08-13T23:36:03.515Z,25.07
2018-08-13T23:38:33.244Z,24.93
2018-08-13T23:43:53.522Z,24.96
2018-08-13T23:46:22.675Z,24.94
2018-08-13T23:48:51.800Z,24.92
2018-08-13T23:57:03.934Z,24.77
2018-08-13T23:59:32.900Z,24.85
